Time;durP1;ratioP1;P1;durP2;ratioP2;P2;SDS_P1;SDS_P2;PMS_P1;PMS_P2;Temp;Humidity;BMP_temperature;BMP_pressure;BME280_temperature;BME280_humidity;BME280_pressure;Samples;Min_cycle;Max_cycle;Signal;HPM_P1;HPM_P2
2021/11/15 00:00:13;;;;;;;24.93;14.43;;;;;;;3.80;86.56;98561.75;6221856;28;20200;-67
2021/11/15 00:03:17;;;;;;;25.77;15.20;;;;;;;3.80;86.85;98569.59;6222129;28;20330;-66
2021/11/15 00:06:19;;;;;;;28.53;15.50;;;;;;;3.80;86.88;98567.84;6221633;28;20215;-66
2021/11/15 00:09:22;;;;;;;27.80;15.73;;;;;;;3.82;87.12;98570.38;6222753;28;20201;-67
2021/11/15 00:12:24;;;;;;;29.50;16.47;;;;;;;3.82;87.06;98573.84;6222236;28;20261;-66
2021/11/15 00:15:29;;;;;;;30.10;16.40;;;;;;;3.80;87.52;98567.84;6214657;28;20213;-66
2021/11/15 00:18:31;;;;;;;29.50;15.60;;;;;;;3.80;87.35;98573.06;6222632;28;20190;-67
2021/11/15 00:21:33;;;;;;;25.97;16.00;;;;;;;3.81;86.69;98563.47;6222326;28;20199;-66
2021/11/15 00:24:36;;;;;;;22.60;13.93;;;;;;;3.79;86.47;98563.56;6222359;28;20581;-67
2021/11/15 00:27:39;;;;;;;29.57;17.23;;;;;;;3.78;86.79;98559.22;6222304;28;20275;-67
2021/11/15 00:30:41;;;;;;;32.67;16.90;;;;;;;3.79;86.81;98560.94;6222250;28;20203;-67
2021/11/15 00:33:43;;;;;;;27.90;15.77;;;;;;;3.81;86.92;98566.06;6221975;28;20200;-67
2021/11/15 00:36:45;;;;;;;28.47;16.27;;;;;;;3.79;86.54;98560.09;6222201;28;20196;-68
2021/11/15 00:39:49;;;;;;;24.63;14.50;;;;;;;3.78;87.11;98551.41;6221895;28;20196;-67
2021/11/15 00:42:52;;;;;;;26.13;15.37;;;;;;;3.78;86.87;98559.22;6221862;28;20184;-67
2021/11/15 00:45:54;;;;;;;29.07;17.23;;;;;;;3.78;87.48;98559.22;6209540;28;20244;-66
2021/11/15 00:48:56;;;;;;;25.63;14.37;;;;;;;3.79;86.96;98560.94;6219049;28;20196;-66
2021/11/15 00:51:58;;;;;;;28.10;15.33;;;;;;;3.81;87.35;98558.25;6221016;28;20208;-68
2021/11/15 00:55:00;;;;;;;28.73;15.37;;;;;;;3.81;87.07;98555.63;6221734;28;20600;-66
2021/11/15 00:58:03;;;;;;;28.30;16.30;;;;;;;3.80;87.50;98561.75;6221636;28;20189;-66
2021/11/15 01:01:06;;;;;;;24.77;13.93;;;;;;;3.79;87.43;98553.09;6222309;28;20190;-67
2021/11/15 01:04:08;;;;;;;28.83;15.77;;;;;;;3.80;86.69;98569.59;6221515;28;20199;-66
2021/11/15 01:07:10;;;;;;;25.13;14.77;;;;;;;3.79;87.14;98571.38;6221348;28;20199;-66
2021/11/15 01:10:15;;;;;;;27.30;15.43;;;;;;;3.80;87.15;98559.16;6222220;28;20196;-66
2021/11/15 01:13:17;;;;;;;28.93;14.70;;;;;;;3.78;86.75;98556.63;6220981;28;20703;-66
2021/11/15 01:16:19;;;;;;;23.73;13.53;;;;;;;3.77;87.46;98557.53;6204476;28;20583;-66
2021/11/15 01:19:21;;;;;;;26.30;15.43;;;;;;;3.79;87.48;98557.47;6213910;28;20195;-67
2021/11/15 01:22:23;;;;;;;24.57;13.70;;;;;;;3.79;86.50;98557.47;6219514;28;20694;-67
2021/11/15 01:25:26;;;;;;;24.33;15.03;;;;;;;3.79;86.48;98560.94;6221209;28;20583;-67
2021/11/15 01:28:28;;;;;;;26.63;14.73;;;;;;;3.79;86.65;98563.56;6220851;28;20196;-67
2021/11/15 01:31:30;;;;;;;24.93;14.50;;;;;;;3.81;87.14;98569.53;6220676;28;20207;-66
2021/11/15 01:34:33;;;;;;;26.40;13.50;;;;;;;3.80;86.95;98553.94;6219444;28;20228;-66
2021/11/15 01:37:36;;;;;;;25.10;14.80;;;;;;;3.81;86.56;98560.84;6219284;28;20613;-67
2021/11/15 01:40:39;;;;;;;24.57;14.40;;;;;;;3.77;87.26;98552.31;6220721;28;20200;-67
2021/11/15 01:43:41;;;;;;;23.33;14.20;;;;;;;3.76;87.17;98555.81;6219029;28;20676;-68
2021/11/15 01:46:43;;;;;;;27.03;15.07;;;;;;;3.77;87.23;98548.84;6214988;28;20684;-67
2021/11/15 01:49:45;;;;;;;24.33;14.30;;;;;;;3.78;87.20;98542.72;6220461;28;20203;-67
2021/11/15 01:52:49;;;;;;;25.53;13.83;;;;;;;3.79;86.54;98549.66;6220065;28;20558;-67
2021/11/15 01:55:51;;;;;;;26.30;14.60;;;;;;;3.79;86.81;98553.09;6203196;28;20547;-66
2021/11/15 01:58:53;;;;;;;30.17;16.00;;;;;;;3.80;86.63;98552.16;6220107;28;20672;-67
2021/11/15 02:01:56;;;;;;;25.03;14.90;;;;;;;3.81;86.64;98547.78;6219937;28;20203;-67
2021/11/15 02:04:58;;;;;;;24.47;14.97;;;;;;;3.79;86.79;98532.22;6220460;28;20209;-71
2021/11/15 02:08:02;;;;;;;28.13;16.40;;;;;;;3.76;86.42;98542.78;6218462;28;20212;-67
2021/11/15 02:11:04;;;;;;;26.30;15.33;;;;;;;3.76;86.72;98539.31;6218582;28;20680;-66
2021/11/15 02:14:06;;;;;;;26.63;15.20;;;;;;;3.76;86.58;98545.38;6219896;28;20664;-66
2021/11/15 02:17:09;;;;;;;20.57;13.17;;;;;;;3.76;86.57;98540.16;6205547;28;20203;-66
2021/11/15 02:20:18;;;;;;;25.77;14.93;;;;;;;3.76;87.19;98534.09;6219749;28;20567;-66
2021/11/15 02:23:23;;;;;;;26.90;14.97;;;;;;;3.77;87.27;98531.44;6219712;28;20192;-67
2021/11/15 02:26:25;;;;;;;26.43;16.23;;;;;;;3.79;87.30;98539.19;6218618;28;20716;-68
2021/11/15 02:29:27;;;;;;;25.20;14.27;;;;;;;3.79;86.87;98537.44;6218458;28;20260;-69
2021/11/15 02:32:31;;;;;;;26.00;14.37;;;;;;;3.79;87.18;98534.84;6219452;28;20714;-67
2021/11/15 02:35:33;;;;;;;24.07;14.43;;;;;;;3.80;87.01;98535.66;6219328;28;20195;-66
2021/11/15 02:38:36;;;;;;;27.30;15.47;;;;;;;3.79;86.87;98536.59;6218153;28;20369;-67
2021/11/15 02:41:38;;;;;;;24.53;15.47;;;;;;;3.79;86.62;98531.38;6219274;28;20204;-70
2021/11/15 02:44:41;;;;;;;25.17;13.77;;;;;;;3.81;87.24;98532.13;6215237;28;20231;-68
2021/11/15 02:47:43;;;;;;;25.83;13.90;;;;;;;3.82;86.89;98526.00;6200090;28;20200;-65
2021/11/15 02:50:46;;;;;;;24.17;12.37;;;;;;;3.83;87.26;98531.16;6219939;28;20192;-69
2021/11/15 02:53:48;;;;;;;24.43;14.07;;;;;;;3.84;86.59;98542.47;6217993;28;20215;-70
2021/11/15 02:56:51;;;;;;;23.77;13.10;;;;;;;3.84;86.73;98534.63;6219362;28;20207;-69
2021/11/15 02:59:54;;;;;;;20.33;12.73;;;;;;;3.83;86.99;98538.16;6219004;28;20196;-69
2021/11/15 03:02:58;;;;;;;21.07;12.90;;;;;;;3.82;87.19;98539.06;6218953;28;20667;-66
2021/11/15 03:06:01;;;;;;;23.10;13.27;;;;;;;3.81;86.75;98537.34;6219007;28;20192;-68
2021/11/15 03:09:03;;;;;;;27.20;16.00;;;;;;;3.81;87.40;98538.22;6217730;28;20203;-68
2021/11/15 03:12:06;;;;;;;30.63;15.50;;;;;;;3.83;87.34;98535.53;6218740;28;20255;-72
2021/11/15 03:15:09;;;;;;;22.90;14.30;;;;;;;3.85;87.04;98537.19;6221390;28;20193;-68
2021/11/15 03:18:26;;;;;;;25.27;14.80;;;;;;;3.85;86.78;98549.41;6223806;28;20573;-67
2021/11/15 03:21:28;;;;;;;26.10;15.37;;;;;;;3.84;86.82;98548.53;6223969;28;20177;-69
2021/11/15 03:24:31;;;;;;;22.93;14.47;;;;;;;3.84;86.84;98543.31;6224296;28;20188;-71
2021/11/15 03:27:35;;;;;;;25.20;14.00;;;;;;;3.84;87.14;98553.75;6223835;28;20202;-66
2021/11/15 03:30:38;;;;;;;27.70;15.37;;;;;;;3.84;87.13;98552.91;6223683;28;20226;-69
2021/11/15 03:33:40;;;;;;;24.57;14.67;;;;;;;3.83;86.77;98553.81;6223351;28;20204;-68
2021/11/15 03:36:43;;;;;;;23.13;13.50;;;;;;;3.84;86.90;98555.53;6223401;28;20194;-68
2021/11/15 03:39:46;;;;;;;25.37;14.30;;;;;;;3.81;86.43;98556.47;6223292;28;20193;-68
2021/11/15 03:42:52;;;;;;;22.57;13.13;;;;;;;3.81;87.29;98563.47;6221989;28;20196;-69
2021/11/15 03:45:55;;;;;;;21.90;13.17;;;;;;;3.80;87.18;98554.78;6213347;28;20298;-68
2021/11/15 03:48:58;;;;;;;22.67;14.00;;;;;;;3.80;86.88;98564.38;6223293;28;20226;-68
2021/11/15 03:52:00;;;;;;;26.50;13.57;;;;;;;3.79;87.04;98565.31;6223455;28;20231;-71
2021/11/15 03:55:04;;;;;;;21.73;13.13;;;;;;;3.80;87.35;98566.97;6222999;28;20613;-69
2021/11/15 03:58:07;;;;;;;27.00;14.43;;;;;;;3.80;87.04;98561.75;6223479;28;20204;-67
2021/11/15 04:01:11;;;;;;;25.87;14.70;;;;;;;3.80;87.22;98574.81;6222731;28;20196;-68
2021/11/15 04:04:17;;;;;;;29.97;17.50;;;;;;;3.78;87.27;98568.81;6221581;28;20204;-68
2021/11/15 04:07:28;;;;;;;28.30;15.70;;;;;;;3.77;86.61;98562.75;6222779;28;20679;-69
2021/11/15 04:10:34;;;;;;;26.20;14.83;;;;;;;3.76;87.09;98561.06;6223251;28;20191;-67
2021/11/15 04:13:41;;;;;;;22.20;12.80;;;;;;;3.76;87.22;98563.66;6222656;28;20714;-68
2021/11/15 04:16:46;;;;;;;22.57;13.60;;;;;;;3.77;87.27;98564.50;6202136;28;20205;-68
2021/11/15 04:19:51;;;;;;;23.77;14.07;;;;;;;3.79;86.92;98571.38;6222644;28;20647;-68
2021/11/15 04:22:53;;;;;;;25.53;13.83;;;;;;;3.80;86.68;98565.22;6222352;28;20258;-71
2021/11/15 04:25:55;;;;;;;28.73;15.13;;;;;;;3.81;86.94;98566.94;6222204;28;20198;-69
2021/11/15 04:28:59;;;;;;;24.80;16.03;;;;;;;3.81;86.64;98566.06;6222325;28;20617;-68
2021/11/15 04:32:05;;;;;;;28.10;15.07;;;;;;;3.81;86.05;98576.53;6221817;28;20208;-69
2021/11/15 04:35:12;;;;;;;24.33;15.70;;;;;;;3.79;86.70;98560.09;6221045;28;20565;-69
2021/11/15 04:38:14;;;;;;;25.13;14.53;;;;;;;3.80;86.47;98570.44;6220774;28;20287;-68
2021/11/15 04:41:16;;;;;;;30.17;18.10;;;;;;;3.77;86.64;98565.38;6220652;28;20204;-67
2021/11/15 04:44:18;;;;;;;32.77;17.87;;;;;;;3.69;86.08;98565.63;6220625;28;20948;-68
2021/11/15 04:47:20;;;;;;;31.03;17.93;;;;;;;3.65;86.17;98566.69;6221402;28;20350;-68
2021/11/15 04:50:22;;;;;;;25.10;16.57;;;;;;;3.65;86.47;98564.06;6221752;28;20794;-68
2021/11/15 04:53:25;;;;;;;28.67;16.63;;;;;;;3.67;86.09;98561.41;6220212;28;20334;-70
2021/11/15 04:56:27;;;;;;;27.50;14.10;;;;;;;3.68;86.37;98568.34;6221601;28;20209;-68
2021/11/15 04:59:29;;;;;;;26.97;14.97;;;;;;;3.67;86.20;98575.31;6220210;28;20200;-69
2021/11/15 05:02:31;;;;;;;25.17;15.53;;;;;;;3.69;86.66;98583.09;6221249;28;20220;-68
2021/11/15 05:05:34;;;;;;;23.20;14.07;;;;;;;3.68;85.72;98578.78;6220121;28;20288;-69
2021/11/15 05:08:36;;;;;;;23.50;14.57;;;;;;;3.69;85.97;98573.47;6220135;28;20199;-68
2021/11/15 05:11:38;;;;;;;27.37;16.23;;;;;;;3.70;85.89;98572.56;6219849;28;20203;-68
2021/11/15 05:14:40;;;;;;;23.53;14.33;;;;;;;3.71;86.43;98576.03;6218639;28;20208;-68
2021/11/15 05:17:44;;;;;;;23.77;14.03;;;;;;;3.71;86.45;98576.03;6214383;28;20194;-68
2021/11/15 05:20:46;;;;;;;28.93;15.17;;;;;;;3.71;86.45;98574.25;6221123;28;20243;-68
2021/11/15 05:23:52;;;;;;;30.47;17.50;;;;;;;3.70;85.87;98576.94;6221475;28;20195;-68
2021/11/15 05:26:54;;;;;;;29.13;16.43;;;;;;;3.69;85.97;98573.47;6219732;28;20211;-69
2021/11/15 05:29:57;;;;;;;23.73;14.47;;;;;;;3.67;86.41;98575.31;6219460;28;20199;-68
2021/11/15 05:32:59;;;;;;;26.93;16.43;;;;;;;3.66;86.32;98570.16;6220664;28;20575;-68
2021/11/15 05:36:02;;;;;;;28.50;15.27;;;;;;;3.66;86.20;98575.38;6220056;28;20196;-68
2021/11/15 05:39:05;;;;;;;32.13;17.27;;;;;;;3.67;85.91;98577.06;6219591;28;20205;-68
2021/11/15 05:42:07;;;;;;;28.90;16.90;;;;;;;3.64;85.59;98578.03;6219145;28;20202;-69
2021/11/15 05:45:10;;;;;;;33.77;18.17;;;;;;;3.59;85.83;98574.72;6212819;28;20247;-68
2021/11/15 05:48:12;;;;;;;30.40;17.60;;;;;;;3.57;86.28;98567.88;6211961;28;20674;-68
2021/11/15 05:51:14;;;;;;;28.73;16.03;;;;;;;3.57;85.98;98589.63;6220393;28;20234;-68
2021/11/15 05:54:17;;;;;;;27.93;17.03;;;;;;;3.56;85.94;98595.75;6220360;28;20770;-68
2021/11/15 05:57:19;;;;;;;31.33;18.73;;;;;;;3.59;86.39;98597.41;6220566;28;20189;-68
2021/11/15 06:00:25;;;;;;;30.73;17.43;;;;;;;3.59;86.26;98598.22;6219009;28;20198;-68
2021/11/15 06:03:28;;;;;;;28.93;17.67;;;;;;;3.61;85.99;98598.16;6220003;28;20219;-69
2021/11/15 06:06:30;;;;;;;34.70;20.07;;;;;;;3.59;86.02;98593.00;6220290;28;20226;-68
2021/11/15 06:09:32;;;;;;;30.90;18.27;;;;;;;3.57;86.07;98592.22;6219940;28;20207;-68
2021/11/15 06:12:37;;;;;;;34.33;19.10;;;;;;;3.56;86.27;98600.09;6219718;28;20217;-69
2021/11/15 06:15:39;;;;;;;32.10;19.50;;;;;;;3.51;85.93;98596.81;6209481;28;20201;-68
2021/11/15 06:18:41;;;;;;;29.23;16.77;;;;;;;3.52;86.19;98604.59;6207294;28;20207;-68
2021/11/15 06:21:43;;;;;;;25.40;16.33;;;;;;;3.56;86.37;98607.94;6219690;28;20318;-68
2021/11/15 06:24:47;;;;;;;27.37;16.80;;;;;;;3.57;86.63;98607.88;6218673;28;20263;-71
2021/11/15 06:27:50;;;;;;;34.30;19.67;;;;;;;3.58;86.74;98616.56;6218141;28;20200;-68
2021/11/15 06:30:53;;;;;;;32.70;19.00;;;;;;;3.55;86.65;98617.53;6219624;28;20198;-68
2021/11/15 06:33:55;;;;;;;34.63;19.40;;;;;;;3.53;86.48;98621.09;6219499;28;20211;-69
2021/11/15 06:36:57;;;;;;;33.03;19.57;;;;;;;3.53;86.58;98627.16;6219034;28;20277;-69
2021/11/15 06:39:59;;;;;;;29.63;17.50;;;;;;;3.57;86.41;98630.53;6219053;28;20667;-68
2021/11/15 06:43:01;;;;;;;35.00;19.87;;;;;;;3.58;86.47;98635.69;6217447;28;20569;-68
2021/11/15 06:46:04;;;;;;;32.33;17.80;;;;;;;3.59;86.32;98629.53;6215339;28;20239;-69
2021/11/15 06:49:06;;;;;;;33.10;18.90;;;;;;;3.60;85.91;98628.63;6218767;28;20192;-68
2021/11/15 06:52:11;;;;;;;33.73;19.17;;;;;;;3.57;86.03;98628.75;6218810;28;20269;-67
2021/11/15 06:55:15;;;;;;;35.10;20.37;;;;;;;3.56;86.00;98627.06;6217610;28;20571;-68
2021/11/15 06:58:17;;;;;;;35.40;19.33;;;;;;;3.58;86.47;98635.69;6217204;28;20229;-69
2021/11/15 07:01:19;;;;;;;28.67;17.67;;;;;;;3.62;86.33;98634.66;6217792;28;20199;-68
2021/11/15 07:04:21;;;;;;;33.73;18.30;;;;;;;3.69;86.39;98633.50;6218631;28;20190;-68
2021/11/15 07:07:23;;;;;;;35.77;19.13;;;;;;;3.70;86.44;98631.75;6218742;28;20572;-68
2021/11/15 07:10:25;;;;;;;33.90;19.20;;;;;;;3.71;85.95;98636.91;6217127;28;20205;-69
2021/11/15 07:13:27;;;;;;;33.20;19.20;;;;;;;3.75;86.09;98636.81;6218348;28;20307;-68
2021/11/15 07:16:29;;;;;;;35.00;19.37;;;;;;;3.80;85.77;98640.09;6207187;28;20248;-67
2021/11/15 07:19:32;;;;;;;30.30;18.93;;;;;;;3.81;86.04;98639.19;6217141;28;20205;-68
2021/11/15 07:22:34;;;;;;;33.53;20.43;;;;;;;3.79;85.47;98634.03;6218641;28;20211;-68
2021/11/15 07:25:36;;;;;;;36.00;19.80;;;;;;;3.79;85.97;98633.19;6218435;28;20743;-68
2021/11/15 07:28:39;;;;;;;37.87;19.83;;;;;;;3.82;85.59;98641.72;6218467;28;20233;-68
2021/11/15 07:31:43;;;;;;;32.97;19.00;;;;;;;3.82;85.50;98640.88;6200761;28;20521;-68
2021/11/15 07:34:46;;;;;;;33.07;18.83;;;;;;;3.85;85.20;98639.00;6218598;28;20253;-71
2021/11/15 07:37:48;;;;;;;27.50;16.93;;;;;;;3.89;85.72;98635.38;6218202;28;20224;-68
2021/11/15 07:40:51;;;;;;;31.80;18.27;;;;;;;3.96;85.42;98644.69;6216826;28;20217;-68
2021/11/15 07:43:53;;;;;;;32.70;18.70;;;;;;;3.91;85.97;98638.78;6218415;28;20188;-68
2021/11/15 07:46:55;;;;;;;29.93;16.73;;;;;;;3.89;85.59;98644.97;6197428;28;20244;-69
2021/11/15 07:49:57;;;;;;;28.50;15.37;;;;;;;3.91;85.50;98649.22;6216929;28;20200;-71
2021/11/15 07:52:59;;;;;;;29.03;16.40;;;;;;;3.91;85.18;98633.53;6217942;28;20698;-68
2021/11/15 07:56:03;;;;;;;32.93;18.63;;;;;;;3.94;86.00;98649.09;6217896;28;20687;-68
2021/11/15 07:59:05;;;;;;;32.87;18.87;;;;;;;3.94;85.87;98653.47;6219048;28;20194;-68
2021/11/15 08:02:08;;;;;;;29.60;18.53;;;;;;;3.93;85.89;98643.94;6222403;28;20196;-68
2021/11/15 08:05:13;;;;;;;35.30;18.87;;;;;;;3.95;84.89;98653.44;6222431;28;20200;-68
2021/11/15 08:08:15;;;;;;;32.60;18.93;;;;;;;3.97;84.97;98655.97;6222253;28;20279;-71
2021/11/15 08:11:18;;;;;;;32.43;18.77;;;;;;;3.94;84.75;98654.34;6222939;28;20198;-68
2021/11/15 08:14:20;;;;;;;34.33;18.13;;;;;;;3.93;85.31;98646.56;6222152;28;20715;-69
2021/11/15 08:17:22;;;;;;;36.57;18.83;;;;;;;3.97;85.64;98651.59;6196844;28;20565;-68
2021/11/15 08:20:31;;;;;;;37.53;19.67;;;;;;;4.06;85.11;98653.00;6219216;28;20283;-68
2021/11/15 08:23:35;;;;;;;35.90;18.70;;;;;;;4.11;84.31;98655.44;6222157;28;20200;-68
2021/11/15 08:26:49;;;;;;;29.53;16.40;;;;;;;4.14;84.79;98656.19;6222065;28;20196;-68
2021/11/15 08:29:55;;;;;;;31.50;17.20;;;;;;;4.24;84.58;98667.97;6221823;28;20336;-69
2021/11/15 08:33:00;;;;;;;27.37;16.00;;;;;;;4.32;84.85;98659.81;6221687;28;20211;-68
2021/11/15 08:36:02;;;;;;;32.87;18.00;;;;;;;4.40;84.21;98661.22;6221801;28;20322;-68
2021/11/15 08:39:14;;;;;;;29.53;16.77;;;;;;;4.40;83.58;98658.59;6221380;28;20227;-68
2021/11/15 08:42:16;;;;;;;32.83;18.47;;;;;;;4.40;83.55;98652.53;6221463;28;20192;-68
2021/11/15 08:45:20;;;;;;;30.23;17.53;;;;;;;4.42;83.93;98666.38;6213966;28;20232;-68
2021/11/15 08:48:22;;;;;;;30.83;17.17;;;;;;;4.51;83.61;98662.56;6197263;28;20217;-67
2021/11/15 08:51:25;;;;;;;30.73;18.10;;;;;;;4.58;83.82;98672.72;6218508;28;20203;-68
2021/11/15 08:54:28;;;;;;;28.67;18.03;;;;;;;4.55;83.09;98667.59;6221227;28;20236;-68
2021/11/15 08:57:30;;;;;;;30.40;18.47;;;;;;;4.62;82.84;98673.44;6221129;28;20193;-68
2021/11/15 09:00:33;;;;;;;29.57;17.37;;;;;;;4.68;82.95;98675.81;6219831;28;20231;-70
2021/11/15 09:03:39;;;;;;;26.43;17.33;;;;;;;4.67;82.53;98677.56;6221080;28;20667;-68
2021/11/15 09:06:41;;;;;;;30.17;19.33;;;;;;;4.74;82.66;98668.56;6221077;28;20621;-68
2021/11/15 09:09:43;;;;;;;28.60;17.33;;;;;;;4.67;82.04;98674.13;6220563;28;20199;-68
2021/11/15 09:12:48;;;;;;;25.73;15.80;;;;;;;4.77;82.13;98675.44;6220187;28;20185;-68
2021/11/15 09:15:50;;;;;;;25.93;16.93;;;;;;;4.94;82.69;98670.34;6207711;28;20205;-69
2021/11/15 09:18:52;;;;;;;26.10;16.90;;;;;;;5.09;81.85;98676.72;6216806;28;20606;-68
2021/11/15 09:21:54;;;;;;;32.83;18.30;;;;;;;5.12;81.58;98674.81;6220385;28;20294;-68
2021/11/15 09:24:58;;;;;;;30.20;19.00;;;;;;;5.10;80.73;98683.63;6220605;28;20196;-68
2021/11/15 09:28:00;;;;;;;31.47;18.13;;;;;;;5.09;81.33;98677.53;6220688;28;20564;-69
2021/11/15 09:31:03;;;;;;;28.13;18.40;;;;;;;5.08;81.50;98681.09;6220241;28;20644;-69
2021/11/15 09:34:06;;;;;;;32.47;18.83;;;;;;;5.05;81.09;98673.38;6219168;28;20218;-68
2021/11/15 09:37:13;;;;;;;29.00;18.47;;;;;;;5.09;81.11;98672.31;6220043;28;20196;-69
2021/11/15 09:40:15;;;;;;;26.03;16.77;;;;;;;5.13;81.03;98676.50;6220514;28;20645;-68
2021/11/15 09:43:18;;;;;;;26.73;16.47;;;;;;;5.15;81.10;98664.22;6220102;28;20201;-68
2021/11/15 09:46:24;;;;;;;31.87;19.10;;;;;;;5.12;80.77;98661.72;6202626;28;20239;-68
2021/11/15 09:49:26;;;;;;;29.17;18.50;;;;;;;5.23;80.54;98661.25;6212850;28;20204;-68
2021/11/15 09:52:28;;;;;;;29.20;19.50;;;;;;;5.44;80.75;98655.09;6219834;28;20284;-69
2021/11/15 09:55:32;;;;;;;28.67;18.47;;;;;;;5.57;80.11;98658.03;6218491;28;20215;-68
2021/11/15 09:58:35;;;;;;;28.03;18.43;;;;;;;5.74;79.56;98655.50;6219881;28;20569;-68
2021/11/15 10:01:43;;;;;;;29.70;19.70;;;;;;;5.91;78.96;98652.13;6219715;28;20193;-68
2021/11/15 10:04:46;;;;;;;30.40;19.40;;;;;;;5.92;78.69;98656.47;6219658;28;20174;-72
2021/11/15 10:07:55;;;;;;;28.87;18.93;;;;;;;6.08;78.55;98651.38;6218680;28;20204;-68
2021/11/15 10:10:57;;;;;;;33.57;19.90;;;;;;;6.19;78.29;98649.91;6218157;28;20253;-68
2021/11/15 10:14:04;;;;;;;29.13;19.80;;;;;;;6.39;78.16;98645.53;6219647;28;20711;-69
2021/11/15 10:17:06;;;;;;;29.00;19.30;;;;;;;6.46;77.33;98646.94;6213775;28;20565;-68
2021/11/15 10:20:08;;;;;;;27.33;18.47;;;;;;;6.52;76.84;98641.38;6219328;28;20230;-69
2021/11/15 10:23:30;;;;;;;29.50;19.80;;;;;;;6.62;76.21;98635.59;6217932;28;20215;-68
2021/11/15 10:26:46;;;;;;;29.47;19.47;;;;;;;6.62;76.48;98626.88;6219605;28;20196;-67
2021/11/15 10:29:50;;;;;;;27.80;18.93;;;;;;;6.72;76.06;98632.53;6219418;28;20402;-68
2021/11/15 10:32:53;;;;;;;29.30;19.70;;;;;;;6.92;75.49;98624.50;6217718;28;20205;-68
2021/11/15 10:35:55;;;;;;;31.63;22.30;;;;;;;6.91;74.51;98626.28;6217798;28;20200;-67
2021/11/15 10:38:57;;;;;;;33.50;22.20;;;;;;;6.62;75.11;98617.25;6217829;28;20204;-67
2021/11/15 10:42:03;;;;;;;30.77;20.53;;;;;;;6.74;75.09;98617.56;6218963;28;20217;-68
2021/11/15 10:45:11;;;;;;;34.27;22.20;;;;;;;7.06;74.16;98616.81;6213015;28;20241;-69
2021/11/15 10:48:17;;;;;;;28.10;20.37;;;;;;;7.21;74.25;98608.13;6213343;28;20235;-69
2021/11/15 10:51:43;;;;;;;30.00;19.57;;;;;;;7.52;73.47;98599.50;6218908;28;20735;-68
2021/11/15 10:55:05;;;;;;;28.57;20.27;;;;;;;7.61;72.52;98600.78;6218945;28;20865;-68
2021/11/15 10:58:15;;;;;;;33.47;21.00;;;;;;;7.37;72.57;98595.91;6217558;28;20216;-68
2021/11/15 11:01:20;;;;;;;29.50;19.27;;;;;;;7.27;72.96;98602.56;6218554;28;20250;-68
2021/11/15 11:04:27;;;;;;;29.17;20.00;;;;;;;7.41;72.95;98596.56;6218572;28;20189;-69
2021/11/15 11:07:30;;;;;;;29.73;20.40;;;;;;;7.45;72.32;98586.78;6218779;28;20693;-69
2021/11/15 11:10:41;;;;;;;29.73;20.67;;;;;;;7.39;72.04;98599.28;6218679;28;20670;-68
2021/11/15 11:14:10;;;;;;;25.13;18.60;;;;;;;7.42;72.96;98595.66;6217254;28;20712;-68
2021/11/15 11:17:12;;;;;;;26.70;18.50;;;;;;;7.72;72.14;98588.75;6197482;28;20216;-68
2021/11/15 11:20:30;;;;;;;32.50;21.33;;;;;;;7.76;71.16;98589.44;6217382;28;20283;-67
2021/11/15 11:26:57;;;;;;;29.90;20.50;;;;;;;7.78;71.73;98584.97;6194269;28;20272;-68
2021/11/15 11:29:59;;;;;;;28.40;19.57;;;;;;;7.77;71.00;98583.28;6215926;28;20198;-68
2021/11/15 11:33:01;;;;;;;28.50;20.30;;;;;;;7.87;71.74;98573.94;6218773;28;20193;-67
2021/11/15 11:36:06;;;;;;;28.17;20.40;;;;;;;7.75;70.05;98579.88;6222647;28;20327;-69
2021/11/15 11:39:11;;;;;;;28.63;20.53;;;;;;;7.71;70.88;98584.44;6221675;28;20191;-68
2021/11/15 11:42:15;;;;;;;31.00;20.93;;;;;;;7.62;70.67;98577.06;6222775;28;20211;-67
2021/11/15 11:45:17;;;;;;;31.33;20.97;;;;;;;7.52;71.29;98586.34;6221141;28;20230;-67
2021/11/15 11:48:19;;;;;;;30.33;21.17;;;;;;;7.65;70.92;98583.94;6222863;28;20694;-67
2021/11/15 11:51:22;;;;;;;33.93;22.50;;;;;;;7.77;71.10;98583.28;6222815;28;20224;-67
2021/11/15 11:54:30;;;;;;;34.43;22.23;;;;;;;7.62;69.96;98584.09;6221345;28;20386;-68
2021/11/15 11:57:32;;;;;;;34.97;22.37;;;;;;;7.49;71.26;98589.13;6221373;28;20290;-68
2021/11/15 12:00:38;;;;;;;32.57;22.27;;;;;;;7.74;70.68;98578.16;6221167;28;20208;-67
2021/11/15 12:03:40;;;;;;;36.17;23.30;;;;;;;7.66;71.29;98591.72;6222742;28;20242;-67
2021/11/15 12:06:44;;;;;;;30.47;20.37;;;;;;;7.79;70.68;98584.84;6222549;28;20282;-68
2021/11/15 12:09:47;;;;;;;32.40;21.93;;;;;;;8.21;69.37;98586.03;6222353;28;20226;-67
2021/11/15 12:12:53;;;;;;;30.20;20.37;;;;;;;8.45;69.64;98581.22;6222337;28;20205;-67
2021/11/15 12:16:01;;;;;;;35.07;21.70;;;;;;;8.72;68.39;98582.25;6212620;28;20204;-68
2021/11/15 12:19:04;;;;;;;31.80;21.23;;;;;;;8.81;67.49;98586.97;6222082;28;20185;-68
2021/11/15 12:22:10;;;;;;;35.77;23.47;;;;;;;8.75;68.83;98587.34;6222033;28;20206;-68
2021/11/15 12:25:22;;;;;;;29.43;20.73;;;;;;;8.94;67.96;98584.47;6222235;28;20602;-67
2021/11/15 12:28:29;;;;;;;33.70;21.07;;;;;;;9.10;67.14;98585.25;6220902;28;20205;-67
2021/11/15 12:31:43;;;;;;;33.83;22.53;;;;;;;9.46;66.55;98576.91;6221719;28;20711;-67
2021/11/15 12:34:58;;;;;;;30.67;21.67;;;;;;;9.36;66.29;98578.41;6220622;28;20222;-68
2021/11/15 12:38:00;;;;;;;34.17;23.10;;;;;;;8.63;68.29;98588.06;6221684;28;20572;-68
2021/11/15 12:41:22;;;;;;;37.50;23.77;;;;;;;8.40;68.19;98575.38;6221268;28;20195;-67
2021/11/15 12:44:36;;;;;;;32.67;23.00;;;;;;;8.56;69.71;98578.81;6220807;28;20303;-67
2021/11/15 12:47:40;;;;;;;40.40;25.37;;;;;;;9.10;66.78;98574.72;6206236;28;20193;-68
2021/11/15 12:50:51;;;;;;;32.70;23.00;;;;;;;10.56;63.33;98577.84;6221726;28;20192;-68
2021/11/15 12:53:53;;;;;;;33.23;23.93;;;;;;;11.55;59.69;98566.63;6221505;28;20236;-68
2021/11/15 12:56:58;;;;;;;34.90;22.60;;;;;;;12.36;56.00;98556.38;6221441;28;20190;-68
2021/11/15 13:00:21;;;;;;;32.63;23.30;;;;;;;10.07;62.38;98569.59;6221055;28;20205;-68
2021/11/15 13:03:25;;;;;;;37.90;24.70;;;;;;;9.36;65.11;98567.88;6219799;28;20197;-67
2021/11/15 13:06:27;;;;;;;37.53;26.23;;;;;;;8.20;68.85;98572.97;6221167;28;20692;-67
2021/11/15 13:09:30;;;;;;;36.53;24.73;;;;;;;7.74;70.99;98578.16;6220938;28;20269;-67
2021/11/15 13:12:35;;;;;;;38.67;26.00;;;;;;;7.49;72.52;98567.28;6219845;28;20203;-68
2021/11/15 13:15:37;;;;;;;42.03;28.23;;;;;;;7.14;73.81;98577.03;6210744;28;20209;-67
2021/11/15 13:18:40;;;;;;;40.97;28.13;;;;;;;6.92;74.69;98572.03;6204695;28;20600;-69
2021/11/15 13:21:43;;;;;;;44.40;29.03;;;;;;;6.88;75.12;98574.00;6221030;28;20193;-67
2021/11/15 13:24:48;;;;;;;38.43;26.63;;;;;;;7.13;74.59;98576.19;6220793;28;20203;-70
2021/11/15 13:27:50;;;;;;;42.20;27.53;;;;;;;7.21;74.13;98568.75;6220881;28;20194;-67
2021/11/15 13:30:53;;;;;;;40.67;26.17;;;;;;;7.17;74.02;98569.84;6220547;28;20624;-67
2021/11/15 13:33:55;;;;;;;34.37;24.13;;;;;;;7.09;73.95;98573.81;6220435;28;20210;-67
2021/11/15 13:37:01;;;;;;;38.77;24.67;;;;;;;7.10;74.42;98570.22;6219322;28;20208;-67
2021/11/15 13:40:06;;;;;;;43.63;29.60;;;;;;;7.11;73.93;98571.94;6220211;28;20196;-68
2021/11/15 13:43:15;;;;;;;37.97;26.13;;;;;;;7.04;75.02;98579.28;6220088;28;20216;-67
2021/11/15 13:46:18;;;;;;;39.87;26.80;;;;;;;7.03;75.41;98577.59;6212851;28;20231;-67
2021/11/15 13:49:21;;;;;;;35.30;25.00;;;;;;;7.18;74.40;98576.81;6220103;28;20271;-69
2021/11/15 13:52:24;;;;;;;38.83;26.23;;;;;;;7.23;74.18;98574.78;6220144;28;20196;-67
2021/11/15 13:55:27;;;;;;;47.60;28.40;;;;;;;7.19;74.59;98580.25;6219977;28;20708;-67
2021/11/15 13:58:32;;;;;;;40.90;28.07;;;;;;;6.86;75.56;98588.09;6219434;28;20745;-68
2021/11/15 14:01:34;;;;;;;41.70;29.30;;;;;;;6.61;76.29;98591.09;6219672;28;20194;-67
2021/11/15 14:04:36;;;;;;;42.27;28.80;;;;;;;6.56;76.78;98586.09;6219835;28;20195;-67
2021/11/15 14:07:39;;;;;;;40.87;28.63;;;;;;;6.50;76.92;98582.91;6218651;28;20517;-67
2021/11/15 14:10:42;;;;;;;41.77;29.50;;;;;;;6.46;76.90;98587.47;6219877;28;20193;-67
2021/11/15 14:13:44;;;;;;;46.67;30.20;;;;;;;6.30;77.76;98579.50;6218215;28;20665;-67
2021/11/15 14:16:46;;;;;;;48.17;30.63;;;;;;;6.24;77.95;98582.44;6202174;28;20590;-68